createdAt,value
2023-04-24T00:01:35.314Z,12.52
2023-04-24T00:04:15.479Z,15.15
2023-04-24T00:06:59.074Z,12.98
2023-04-24T00:09:33.887Z,15.38
2023-04-24T00:12:14.041Z,14.88
2023-04-24T00:14:51.742Z,15.60
2023-04-24T00:17:40.609Z,15.98
2023-04-24T00:20:31.135Z,16.10
2023-04-24T00:23:09.230Z,15.30
2023-04-24T00:25:48.430Z,13.88
2023-04-24T00:28:41.338Z,13.27
2023-04-24T00:31:16.651Z,12.90
2023-04-24T00:33:52.074Z,15.95
2023-04-24T00:36:35.034Z,15.68
2023-04-24T00:39:17.810Z,15.55
2023-04-24T00:41:58.657Z,16.73
2023-04-24T00:44:37.454Z,17.23
2023-04-24T00:47:20.153Z,12.60
2023-04-24T00:50:01.569Z,13.90
2023-04-24T00:52:43.560Z,15.27
2023-04-24T00:58:09.949Z,15.65
2023-04-24T01:00:45.059Z,16.50
2023-04-24T01:03:38.198Z,16.40
2023-04-24T01:06:17.761Z,16.08
2023-04-24T01:09:06.932Z,14.57
2023-04-24T01:11:51.138Z,17.17
2023-04-24T01:14:41.228Z,14.98
2023-04-24T01:17:17.847Z,20.55
2023-04-24T01:20:07.313Z,15.25
2023-04-24T01:22:54.478Z,13.75
2023-04-24T01:25:40.900Z,13.23
2023-04-24T01:28:27.290Z,13.30
2023-04-24T01:31:06.169Z,13.90
2023-04-24T01:33:48.988Z,14.32
2023-04-24T01:36:27.234Z,22.35
2023-04-24T01:39:08.038Z,15.23
2023-04-24T01:41:54.810Z,10.75
2023-04-24T01:44:41.401Z,15.90
2023-04-24T01:47:22.109Z,16.48
2023-04-24T01:50:05.374Z,13.55
2023-04-24T01:52:51.041Z,11.70
2023-04-24T01:55:37.203Z,14.68
2023-04-24T01:58:18.534Z,13.83
2023-04-24T02:01:16.807Z,15.00
2023-04-24T02:03:58.908Z,17.88
2023-04-24T02:06:48.126Z,12.77
2023-04-24T02:09:34.538Z,10.90
2023-04-24T02:12:13.060Z,14.52
2023-04-24T02:14:58.950Z,12.77
2023-04-24T02:17:42.866Z,14.88
2023-04-24T02:20:23.876Z,11.80
2023-04-24T02:23:09.308Z,12.48
2023-04-24T02:25:49.853Z,11.45
2023-04-24T02:28:30.084Z,14.50
2023-04-24T02:31:07.525Z,12.82
2023-04-24T02:33:48.398Z,22.35
2023-04-24T02:36:32.325Z,13.02
2023-04-24T02:39:05.424Z,15.00
2023-04-24T02:41:49.594Z,11.25
2023-04-24T02:44:30.037Z,15.02
2023-04-24T02:47:06.297Z,15.52
2023-04-24T02:49:39.045Z,18.25
2023-04-24T02:52:16.485Z,19.33
2023-04-24T02:54:55.088Z,16.52
2023-04-24T02:57:38.713Z,25.88
2023-04-24T03:00:10.313Z,13.80
2023-04-24T03:02:51.392Z,17.90
2023-04-24T03:05:29.001Z,16.80
2023-04-24T03:08:10.321Z,14.95
2023-04-24T03:10:43.117Z,15.85
2023-04-24T03:13:24.361Z,22.83
2023-04-24T03:16:05.131Z,20.48
2023-04-24T03:18:45.490Z,24.08
2023-04-24T03:21:32.576Z,20.92
2023-04-24T03:24:06.888Z,23.73
2023-04-24T03:26:48.508Z,18.60
2023-04-24T03:29:36.226Z,18.20
2023-04-24T03:32:12.150Z,19.60
2023-04-24T03:34:53.200Z,22.83
2023-04-24T03:37:27.740Z,20.70
2023-04-24T03:40:23.775Z,18.98
2023-04-24T03:43:04.524Z,24.03
2023-04-24T03:45:47.703Z,18.35
2023-04-24T03:48:29.217Z,19.52
2023-04-24T03:51:04.066Z,21.65
2023-04-24T03:53:43.335Z,18.90
2023-04-24T03:56:19.180Z,17.85
2023-04-24T03:58:58.619Z,19.23
2023-04-24T04:01:37.766Z,21.73
2023-04-24T04:04:34.059Z,17.65
2023-04-24T04:07:15.140Z,23.65
2023-04-24T04:10:04.602Z,24.88
2023-04-24T04:12:45.520Z,19.75
2023-04-24T04:15:28.193Z,20.63
2023-04-24T04:18:21.960Z,20.65
2023-04-24T04:21:11.261Z,18.75
2023-04-24T04:23:53.869Z,19.20
2023-04-24T04:26:38.184Z,22.45
2023-04-24T04:29:18.439Z,24.10
2023-04-24T04:32:02.009Z,21.00
2023-04-24T04:34:49.936Z,24.60
2023-04-24T04:37:38.538Z,26.92
2023-04-24T04:40:44.270Z,20.65
2023-04-24T04:43:28.359Z,21.30
2023-04-24T04:46:23.717Z,22.55
2023-04-24T04:49:45.037Z,25.67
2023-04-24T04:52:37.880Z,22.23
2023-04-24T04:55:34.248Z,23.48
2023-04-24T04:58:37.970Z,21.02
2023-04-24T05:01:18.608Z,22.92
2023-04-24T05:04:01.277Z,21.90
2023-04-24T05:06:47.326Z,26.73
2023-04-24T05:09:30.742Z,22.45
2023-04-24T05:12:16.472Z,24.67
2023-04-24T05:15:01.214Z,21.80
2023-04-24T05:17:48.799Z,22.52
2023-04-24T05:20:33.266Z,23.55
2023-04-24T05:23:12.950Z,23.85
2023-04-24T05:25:59.348Z,23.42
2023-04-24T05:28:54.684Z,21.42
2023-04-24T05:31:30.288Z,21.48
2023-04-24T05:34:10.640Z,19.00
2023-04-24T05:36:55.324Z,22.20
2023-04-24T05:39:36.089Z,19.35
2023-04-24T05:42:21.934Z,19.15
2023-04-24T05:45:08.641Z,23.52
2023-04-24T05:47:54.532Z,20.38
2023-04-24T05:50:37.142Z,20.80
2023-04-24T05:53:22.945Z,21.25
2023-04-24T05:55:58.402Z,21.25
2023-04-24T05:58:45.337Z,16.23
2023-04-24T06:01:29.068Z,20.08
2023-04-24T06:04:26.288Z,18.42
2023-04-24T06:07:07.231Z,17.95
2023-04-24T06:09:50.508Z,25.15
2023-04-24T06:12:38.880Z,19.63
2023-04-24T06:15:23.322Z,21.83
2023-04-24T06:18:12.343Z,24.48
2023-04-24T06:20:58.300Z,28.50
2023-04-24T06:23:50.464Z,16.83
2023-04-24T06:26:32.296Z,18.65
2023-04-24T06:29:15.567Z,25.90
2023-04-24T06:32:01.929Z,18.27
2023-04-24T06:37:28.304Z,29.25
2023-04-24T06:40:13.908Z,28.50
2023-04-24T06:42:55.280Z,21.60
2023-04-24T06:45:44.366Z,19.38
2023-04-24T06:48:33.061Z,18.75
2023-04-24T06:51:19.885Z,18.65
2023-04-24T06:54:08.700Z,22.13
2023-04-24T06:56:48.908Z,20.30
2023-04-24T06:59:33.069Z,26.33
2023-04-24T07:02:16.893Z,30.95
2023-04-24T07:04:57.677Z,26.55
2023-04-24T07:07:35.760Z,26.52
2023-04-24T07:10:17.329Z,24.60
2023-04-24T07:12:57.697Z,19.40
2023-04-24T07:15:42.061Z,21.98
2023-04-24T07:18:35.191Z,19.23
2023-04-24T07:21:13.780Z,23.65
2023-04-24T07:23:57.399Z,22.00
2023-04-24T07:26:48.307Z,19.00
2023-04-24T07:29:26.564Z,22.55
2023-04-24T07:32:10.602Z,26.65
2023-04-24T07:34:50.672Z,22.52
2023-04-24T07:37:34.272Z,24.17
2023-04-24T07:40:21.519Z,23.00
2023-04-24T07:43:01.945Z,18.48
2023-04-24T07:45:47.459Z,26.25
2023-04-24T07:48:30.549Z,21.38
2023-04-24T07:51:21.407Z,21.67
2023-04-24T07:54:10.421Z,21.63
2023-04-24T07:56:54.051Z,18.75
2023-04-24T07:59:38.486Z,20.02
2023-04-24T08:02:32.117Z,21.85
2023-04-24T08:05:18.445Z,19.48
2023-04-24T08:08:05.760Z,18.17
2023-04-24T08:10:52.396Z,19.70
2023-04-24T08:13:42.269Z,19.90
2023-04-24T08:16:21.487Z,16.90
2023-04-24T08:19:05.212Z,17.15
2023-04-24T08:21:52.149Z,17.27
2023-04-24T08:24:28.267Z,14.55
2023-04-24T08:27:03.980Z,24.73
2023-04-24T08:29:46.507Z,17.90
2023-04-24T08:32:28.936Z,19.40
2023-04-24T08:35:09.776Z,15.02
2023-04-24T08:37:58.567Z,18.27
2023-04-24T08:40:38.589Z,15.10
2023-04-24T08:43:23.816Z,12.18
2023-04-24T08:46:06.569Z,13.18
2023-04-24T08:48:59.026Z,13.65
2023-04-24T08:51:40.623Z,15.55
2023-04-24T08:54:26.842Z,12.23
2023-04-24T08:57:10.600Z,13.45
2023-04-24T08:59:56.746Z,11.38
2023-04-24T09:02:41.890Z,14.70
2023-04-24T09:05:23.209Z,16.10
2023-04-24T09:08:26.399Z,13.88
2023-04-24T09:11:09.352Z,19.73
2023-04-24T09:13:51.627Z,17.42
2023-04-24T09:16:42.998Z,14.98
2023-04-24T09:22:12.589Z,18.13
2023-04-24T09:24:58.074Z,13.35
2023-04-24T09:27:37.963Z,15.57
2023-04-24T09:30:37.789Z,16.15
2023-04-24T09:33:17.232Z,19.38
2023-04-24T09:35:58.872Z,14.50
2023-04-24T09:38:45.274Z,11.68
2023-04-24T09:41:26.302Z,11.20
2023-04-24T09:44:20.562Z,14.50
2023-04-24T09:47:01.694Z,11.85
2023-04-24T09:49:45.781Z,11.85
2023-04-24T09:52:35.818Z,12.45
2023-04-24T09:55:26.574Z,15.07
2023-04-24T09:58:12.239Z,11.75
2023-04-24T10:01:01.513Z,10.38
2023-04-24T10:03:46.782Z,15.25
2023-04-24T10:06:39.640Z,9.82
2023-04-24T10:09:24.394Z,12.75
2023-04-24T10:12:09.167Z,15.60
2023-04-24T10:14:54.902Z,12.13
2023-04-24T10:17:30.209Z,15.25
2023-04-24T10:20:14.648Z,9.73
2023-04-24T10:23:01.285Z,12.38
2023-04-24T10:25:41.737Z,13.00
2023-04-24T10:28:28.282Z,13.32
2023-04-24T10:31:10.849Z,12.75
2023-04-24T10:33:58.202Z,9.25
2023-04-24T10:36:45.523Z,14.73
2023-04-24T10:39:30.380Z,10.70
2023-04-24T10:42:23.944Z,12.05
2023-04-24T10:44:56.818Z,13.02
2023-04-24T10:47:49.483Z,9.90
2023-04-24T10:50:49.341Z,10.32
2023-04-24T10:53:28.567Z,13.40
2023-04-24T10:56:16.870Z,8.32
2023-04-24T10:58:57.295Z,8.05
2023-04-24T11:01:39.509Z,8.43
2023-04-24T11:04:30.047Z,9.35
2023-04-24T11:07:23.043Z,6.85
2023-04-24T11:10:12.757Z,12.73
2023-04-24T11:12:46.044Z,6.75
2023-04-24T11:15:21.528Z,7.97
2023-04-24T11:18:02.711Z,9.02
2023-04-24T11:21:03.458Z,10.32
2023-04-24T11:23:58.570Z,8.50
2023-04-24T11:26:43.666Z,13.38
2023-04-24T11:29:22.271Z,10.48
2023-04-24T11:32:24.211Z,8.57
2023-04-24T11:35:17.870Z,7.90
2023-04-24T11:38:19.436Z,10.10
2023-04-24T11:41:00.273Z,9.43
2023-04-24T11:43:40.333Z,10.07
2023-04-24T11:46:46.680Z,11.63
2023-04-24T11:49:31.503Z,11.43
2023-04-24T11:52:19.069Z,11.23
2023-04-24T11:55:09.060Z,13.10
2023-04-24T11:58:00.202Z,9.75
2023-04-24T12:00:37.366Z,13.10
2023-04-24T12:03:24.128Z,11.75
2023-04-24T12:06:09.431Z,14.40
2023-04-24T12:08:46.672Z,13.60
2023-04-24T12:11:27.649Z,10.43
2023-04-24T12:14:16.793Z,12.07
2023-04-24T12:17:03.034Z,14.00
2023-04-24T12:19:46.482Z,12.63
2023-04-24T12:22:27.725Z,18.40
2023-04-24T12:25:11.010Z,14.88
2023-04-24T12:28:05.007Z,9.50
2023-04-24T12:30:51.323Z,11.18
2023-04-24T12:33:40.049Z,10.35
2023-04-24T12:36:28.329Z,9.48
2023-04-24T12:39:20.947Z,11.73
2023-04-24T12:42:02.294Z,10.38
2023-04-24T12:44:45.339Z,12.30
2023-04-24T12:47:29.267Z,10.68
2023-04-24T12:52:56.122Z,11.65
2023-04-24T12:55:43.307Z,9.60
2023-04-24T12:58:20.857Z,11.10
2023-04-24T13:01:06.408Z,11.63
2023-04-24T13:03:52.932Z,24.80
2023-04-24T13:06:36.810Z,14.23
2023-04-24T13:09:16.980Z,15.23
2023-04-24T13:11:57.953Z,22.40
2023-04-24T13:14:41.518Z,27.55
2023-04-24T13:17:40.312Z,23.85
2023-04-24T13:20:13.249Z,18.70
2023-04-24T13:22:48.577Z,17.13
2023-04-24T13:25:30.869Z,20.05
2023-04-24T13:28:07.680Z,21.10
2023-04-24T13:30:44.959Z,18.48
2023-04-24T13:33:23.293Z,23.58
2023-04-24T13:36:07.526Z,21.17
2023-04-24T13:38:39.625Z,33.35
2023-04-24T13:41:23.299Z,19.67
2023-04-24T13:44:04.007Z,31.63
2023-04-24T13:46:44.458Z,28.45
2023-04-24T13:49:37.412Z,31.50
2023-04-24T13:52:15.112Z,36.88
2023-04-24T13:54:57.809Z,35.25
2023-04-24T13:57:36.156Z,39.55
2023-04-24T14:00:21.423Z,33.17
2023-04-24T14:03:02.815Z,33.50
2023-04-24T14:05:42.720Z,33.15
2023-04-24T14:08:25.959Z,36.95
2023-04-24T14:11:07.325Z,28.50
2023-04-24T14:13:58.200Z,23.60
2023-04-24T14:16:33.948Z,28.55
2023-04-24T14:19:20.213Z,27.65
2023-04-24T14:21:59.372Z,28.33
2023-04-24T14:24:34.284Z,24.15
2023-04-24T14:27:09.481Z,25.63
2023-04-24T14:30:01.835Z,29.30
2023-04-24T14:32:45.183Z,36.92
2023-04-24T14:35:23.939Z,33.60
2023-04-24T14:37:58.878Z,34.85
2023-04-24T14:43:29.810Z,39.35
2023-04-24T14:46:06.756Z,44.75
2023-04-24T14:48:44.951Z,43.83
2023-04-24T14:51:25.609Z,32.80
2023-04-24T14:53:59.423Z,36.58
2023-04-24T14:56:39.277Z,35.78
2023-04-24T14:59:14.370Z,34.03
2023-04-24T15:02:04.946Z,35.63
2023-04-24T15:04:49.932Z,35.58
2023-04-24T15:07:34.666Z,35.63
2023-04-24T15:10:12.493Z,37.58
2023-04-24T15:13:02.289Z,31.35
2023-04-24T15:15:52.611Z,31.02
2023-04-24T15:18:30.424Z,35.17
2023-04-24T15:21:14.738Z,34.58
2023-04-24T15:23:58.399Z,35.08
2023-04-24T15:26:41.670Z,35.60
2023-04-24T15:29:25.730Z,37.03
2023-04-24T15:32:04.547Z,36.83
2023-04-24T15:34:49.448Z,38.00
2023-04-24T15:37:36.612Z,41.22
2023-04-24T15:40:18.596Z,40.90
2023-04-24T15:42:57.411Z,41.10
2023-04-24T15:45:38.536Z,38.42
2023-04-24T15:48:19.616Z,37.22
2023-04-24T15:53:41.805Z,37.90
2023-04-24T15:56:30.282Z,30.73
2023-04-24T15:59:15.050Z,26.90
2023-04-24T16:02:00.357Z,25.25
2023-04-24T16:04:43.748Z,24.02
2023-04-24T16:07:27.409Z,24.17
2023-04-24T16:10:09.298Z,25.58
2023-04-24T16:12:48.130Z,29.95
2023-04-24T16:15:29.362Z,27.25
2023-04-24T16:18:02.391Z,26.55
2023-04-24T16:20:43.596Z,27.33
2023-04-24T16:23:24.014Z,25.95
2023-04-24T16:26:13.056Z,27.42
2023-04-24T16:28:53.814Z,26.67
2023-04-24T16:31:29.324Z,31.67
2023-04-24T16:34:13.341Z,30.77
2023-04-24T16:36:48.316Z,29.17
2023-04-24T16:39:29.725Z,29.98
2023-04-24T16:42:13.279Z,25.67
2023-04-24T16:44:48.861Z,27.83
2023-04-24T16:47:33.988Z,28.90
2023-04-24T16:50:06.727Z,36.05
2023-04-24T16:52:56.298Z,40.33
2023-04-24T16:55:37.021Z,31.20
2023-04-24T16:58:17.672Z,30.60
2023-04-24T17:00:56.225Z,27.90
2023-04-24T17:03:39.637Z,26.65
2023-04-24T17:06:15.354Z,26.30
2023-04-24T17:09:04.813Z,24.88
2023-04-24T17:11:46.150Z,24.60
2023-04-24T17:14:31.101Z,24.65
2023-04-24T17:17:14.215Z,25.48
2023-04-24T17:19:49.128Z,30.30
2023-04-24T17:22:28.657Z,23.88
2023-04-24T17:25:06.867Z,24.27
2023-04-24T17:27:59.300Z,22.60
2023-04-24T17:30:37.691Z,22.52
2023-04-24T17:33:18.065Z,20.52
2023-04-24T17:35:49.172Z,22.63
2023-04-24T17:38:30.318Z,22.52
2023-04-24T17:41:08.017Z,20.08
2023-04-24T17:43:56.306Z,21.48
2023-04-24T17:46:34.376Z,21.48
2023-04-24T17:49:18.289Z,19.58
2023-04-24T17:52:06.407Z,22.38
2023-04-24T17:54:49.777Z,24.10
2023-04-24T17:57:37.122Z,24.50
2023-04-24T18:00:14.984Z,28.77
2023-04-24T18:03:04.278Z,26.73
2023-04-24T18:05:55.636Z,28.38
2023-04-24T18:08:39.383Z,26.70
2023-04-24T18:11:20.262Z,27.17
2023-04-24T18:14:08.736Z,25.55
2023-04-24T18:16:50.844Z,22.90
2023-04-24T18:19:34.772Z,26.73
2023-04-24T18:24:59.754Z,30.98
2023-04-24T18:27:44.152Z,34.95
2023-04-24T18:30:33.924Z,37.05
2023-04-24T18:33:28.328Z,37.17
2023-04-24T18:36:01.412Z,36.88
2023-04-24T18:38:37.590Z,34.95
2023-04-24T18:41:20.974Z,32.25
2023-04-24T18:44:04.682Z,30.73
2023-04-24T18:46:48.531Z,28.75
2023-04-24T18:52:19.196Z,29.88
2023-04-24T18:54:57.895Z,31.67
2023-04-24T18:57:45.179Z,31.33
2023-04-24T19:00:26.342Z,31.77
2023-04-24T19:03:11.304Z,31.27
2023-04-24T19:05:58.291Z,27.83
2023-04-24T19:11:29.319Z,28.33
2023-04-24T19:14:13.662Z,22.25
2023-04-24T19:16:52.008Z,21.33
2023-04-24T19:19:39.117Z,19.15
2023-04-24T19:22:25.051Z,20.55
2023-04-24T19:25:08.605Z,21.83
2023-04-24T19:27:48.537Z,24.50
2023-04-24T19:30:29.261Z,23.80
2023-04-24T19:33:22.193Z,22.77
2023-04-24T19:36:00.799Z,21.45
2023-04-24T19:38:43.529Z,25.35
2023-04-24T19:41:30.688Z,23.85
2023-04-24T19:44:09.296Z,23.48
2023-04-24T19:46:50.667Z,25.85
2023-04-24T19:49:37.307Z,24.73
2023-04-24T19:52:15.555Z,22.63
2023-04-24T19:54:59.278Z,22.55
2023-04-24T19:57:42.556Z,22.88
2023-04-24T20:00:21.410Z,23.15
2023-04-24T20:02:54.095Z,23.88
2023-04-24T20:05:40.207Z,23.65
2023-04-24T20:08:20.451Z,23.88
2023-04-24T20:11:04.244Z,21.65
2023-04-24T20:13:42.285Z,23.85
2023-04-24T20:16:22.070Z,21.85
2023-04-24T20:19:05.161Z,21.35
2023-04-24T20:21:43.035Z,21.38
2023-04-24T20:24:23.251Z,23.73
2023-04-24T20:27:10.089Z,20.65
2023-04-24T20:29:49.230Z,24.25
2023-04-24T20:32:32.623Z,20.77
2023-04-24T20:35:10.741Z,19.23
2023-04-24T20:37:55.338Z,17.70
2023-04-24T20:40:36.084Z,19.05
2023-04-24T20:43:17.398Z,23.30
2023-04-24T20:45:58.538Z,21.40
2023-04-24T20:48:41.259Z,20.08
2023-04-24T20:51:18.880Z,22.70
2023-04-24T20:53:59.563Z,22.40
2023-04-24T20:56:41.456Z,18.10
2023-04-24T20:59:21.875Z,20.73
2023-04-24T21:02:02.417Z,17.77
2023-04-24T21:04:43.237Z,20.50
2023-04-24T21:07:29.239Z,23.80
2023-04-24T21:10:02.245Z,18.50
2023-04-24T21:12:46.033Z,17.67
2023-04-24T21:15:36.286Z,17.35
2023-04-24T21:18:17.304Z,15.95
2023-04-24T21:20:56.882Z,15.13
2023-04-24T21:23:36.310Z,15.60
2023-04-24T21:26:16.487Z,15.30
2023-04-24T21:29:00.662Z,14.85
2023-04-24T21:31:41.292Z,15.07
2023-04-24T21:34:17.232Z,16.92
2023-04-24T21:36:55.505Z,18.20
2023-04-24T21:39:36.289Z,18.77
2023-04-24T21:42:14.498Z,19.52
2023-04-24T21:44:51.949Z,19.20
2023-04-24T21:47:28.349Z,19.58
2023-04-24T21:50:04.450Z,21.17
2023-04-24T21:52:46.245Z,16.48
2023-04-24T21:55:24.752Z,17.50
2023-04-24T21:57:56.895Z,19.77
2023-04-24T22:00:29.389Z,17.40
2023-04-24T22:03:10.603Z,16.65
2023-04-24T22:05:48.022Z,18.65
2023-04-24T22:08:24.704Z,18.70
2023-04-24T22:11:11.012Z,20.88
2023-04-24T22:13:52.039Z,20.92
2023-04-24T22:16:34.567Z,23.00
2023-04-24T22:19:14.497Z,20.13
2023-04-24T22:21:55.420Z,19.30
2023-04-24T22:24:39.204Z,18.42
2023-04-24T22:27:17.495Z,16.83
2023-04-24T22:30:01.640Z,18.40
2023-04-24T22:32:48.450Z,15.80
2023-04-24T22:35:29.174Z,16.75
2023-04-24T22:37:59.499Z,17.90
2023-04-24T22:40:34.256Z,16.30
2023-04-24T22:43:17.449Z,15.57
2023-04-24T22:46:05.200Z,18.20
2023-04-24T22:48:50.277Z,17.48
2023-04-24T22:51:28.091Z,17.77
2023-04-24T22:54:09.125Z,18.33
2023-04-24T22:59:33.493Z,15.55
2023-04-24T23:02:14.336Z,22.58
2023-04-24T23:05:04.796Z,23.15
2023-04-24T23:07:48.410Z,22.00
2023-04-24T23:10:27.260Z,27.02
2023-04-24T23:13:07.606Z,25.25
2023-04-24T23:15:54.480Z,24.38
2023-04-24T23:18:36.729Z,25.67
2023-04-24T23:21:23.016Z,26.58
2023-04-24T23:24:08.328Z,25.63
2023-04-24T23:26:49.652Z,30.50
2023-04-24T23:29:27.980Z,27.23
2023-04-24T23:32:05.861Z,25.25
2023-04-24T23:34:45.976Z,25.33
2023-04-24T23:37:26.601Z,25.63
2023-04-24T23:40:10.428Z,21.63
2023-04-24T23:43:05.508Z,21.75
2023-04-24T23:45:38.565Z,21.50
2023-04-24T23:48:17.037Z,24.30
2023-04-24T23:51:01.191Z,26.08
2023-04-24T23:53:50.586Z,21.02
2023-04-24T23:56:37.590Z,21.25
2023-04-24T23:59:33.772Z,20.80
